Goodfellow Terrace, Missouri
Current Conditions -  °F | °C
As of 9:51 PM on Saturday 25 Oct 2014 (Local Time) from KSTL Reporting Station
Clear Clear  
Wind Chill: 17°   Ceiling: Unl
Heat Index: 17°   Visibility: 9mi
Dew Point: 12°   Wind: 0mph
Humidity: 72%   Direction: NA
Pressure: 30.03"   Gusts: NA
Location:  38.694°N, 90.256°W
Report Text: KSTL 260251Z 00000KT 9SM CLR 17/12 A3003 RMK AO2 SLP161 T01720122 52002
Loading
Personal Weather Stations






























Interactive Weather Map
Tropical Storm Tracking
New forecast layout! Learn more

10-Day Weather Forecast

Advertisements
Track Severe Weather on mobile